Airfield :
LOGIN :

Register | Disclaimer

   EN    FR    IT 

 










Legend :    VFR   Marginal VFR   IFR   Intensive IFR   Very Intensive IFR
Visi :
Ceiling :
>= 8 km
>= 3000ft
5 to 8 km
1000 to 3000 ft
1500m to 5 km
500 to 1000 ft
800 to 1500m
200 to 500 ft
< 800m
< 200 ft
Symbols :   Thunderstorms  Fog  Heavy snow  Heavy precipitations  Wind > 20 kt
SIGMETs :     Misc.  Thunderstorms  Icing  Turbulence  Mountain Waves  Volcanic Ashes






- Airport Elevation : 963 ft
- IATA code : TGM


LRTM - Transilvania Târgu Mureş Int.

CURRENT METAR :
  • 170300Z AUTO 00000KT 3900 -SHRA SCT001/// BKN003/// BKN010/// 09/09 Q1020

EXPIRED METARs :
  • 170230Z AUTO 00000KT 3500 BKN002/// BKN006/// 09/09 Q1020 RERA
  • 170200Z AUTO 00000KT 2500 -DZ FEW008/// SCT028/// 09/09 Q1020
  • 170130Z AUTO 00000KT 2000 DZ SCT002/// BKN004/// BKN008/// 09/09 Q1020
  • 170100Z AUTO 00000KT 2600 DZ BKN002/// BKN004/// OVC008/// 09/09 Q1020
  • 170030Z AUTO 00000KT 2600 DZ FEW003/// BKN005/// 09/09 Q1020

TAF TAF LRTM
Valid from the 17 at 03:00 until the 17 at 12:00 UTC


170200Z 1703/1712 VRB04KT 5000 -RA BR BKN015 OVC040
TEMPO 1703/1706 3000 RA BR BKN005 OVC025
BECMG 1709/1711 9999 NSW BKN025



MET'MAP, your aeronautical weather chart ! - Copyright ORBIFLY December 2007 - Disclaimer

ORBIFLY MET'MAP TEAM :

Programming & Development : Alexandra Zaïnal
Concept & original design : Baudouin d'Aumeries
Assistance for programming : Marc-Olivier Méhu
Technical & hardware support : Manuel Goepfert

Contact : metmap@orbifly.com




SOURCES & CREDITS :

   NOAA